createdAt,value
2018-04-08T00:00:18.276Z,100720.34
2018-04-08T00:02:44.335Z,100727.22
2018-04-08T00:05:10.409Z,100726.41
2018-04-08T00:07:36.436Z,100729.77
2018-04-08T00:10:02.531Z,100729.86
2018-04-08T00:12:28.625Z,100722.49
2018-04-08T00:14:54.630Z,100725.09
2018-04-08T00:17:20.706Z,100728.02
2018-04-08T00:19:46.731Z,100727.18
2018-04-08T00:22:12.761Z,100722.33
2018-04-08T00:24:38.797Z,100722.16
2018-04-08T00:27:04.864Z,100718.20
2018-04-08T00:29:30.894Z,100722.30
2018-04-08T00:31:56.929Z,100720.88
2018-04-08T00:34:22.950Z,100723.09
2018-04-08T00:36:49.016Z,100722.75
2018-04-08T00:39:15.151Z,100719.41
2018-04-08T00:41:41.150Z,100723.59
2018-04-08T00:44:07.163Z,100720.41
2018-04-08T00:46:33.203Z,100721.58
2018-04-08T00:48:59.279Z,100722.92
2018-04-08T00:51:25.490Z,100723.00
2018-04-08T00:54:00.503Z,100729.69
2018-04-08T00:56:26.603Z,100725.42
2018-04-08T00:58:52.710Z,100733.61
2018-04-08T01:01:18.951Z,100731.30
2018-04-08T01:03:44.995Z,100725.02
2018-04-08T01:06:10.983Z,100725.94
2018-04-08T01:08:36.993Z,100718.31
2018-04-08T01:11:03.033Z,100720.48
2018-04-08T01:13:29.113Z,100721.66
2018-04-08T01:15:55.162Z,100719.13
2018-04-08T01:18:21.231Z,100712.35
2018-04-08T01:20:47.348Z,100700.14
2018-04-08T01:23:13.427Z,100694.23
2018-04-08T01:25:39.582Z,100693.80
2018-04-08T01:28:05.810Z,100699.23
2018-04-08T01:30:31.918Z,100694.20
2018-04-08T01:32:57.952Z,100687.77
2018-04-08T01:35:24.059Z,100683.02
2018-04-08T01:37:50.427Z,100681.52
2018-04-08T01:40:16.467Z,100691.37
2018-04-08T01:42:42.505Z,100692.71
2018-04-08T01:45:08.521Z,100689.03
2018-04-08T01:47:34.582Z,100680.10
2018-04-08T01:50:00.624Z,100682.02
2018-04-08T01:52:26.710Z,100678.59
2018-04-08T01:54:52.730Z,100685.36
2018-04-08T01:57:18.814Z,100681.43
2018-04-08T01:59:44.810Z,100680.50
2018-04-08T02:02:10.841Z,100678.83
2018-04-08T02:04:36.878Z,100674.39
2018-04-08T02:07:02.929Z,100673.81
2018-04-08T02:09:28.988Z,100668.72
2018-04-08T02:11:54.978Z,100671.73
2018-04-08T02:14:21.060Z,100667.37
2018-04-08T02:16:47.096Z,100674.73
2018-04-08T02:19:13.205Z,100663.02
2018-04-08T02:21:39.227Z,100658.17
2018-04-08T02:24:05.241Z,100657.09
2018-04-08T02:26:31.244Z,100661.77
2018-04-08T02:28:57.280Z,100663.51
2018-04-08T02:31:23.445Z,100656.55
2018-04-08T02:33:49.479Z,100653.06
2018-04-08T02:36:15.473Z,100659.32
2018-04-08T02:38:42.274Z,100655.22
2018-04-08T02:41:08.429Z,100656.97
2018-04-08T02:43:34.438Z,100660.89
2018-04-08T02:46:00.937Z,100652.77
2018-04-08T02:48:26.963Z,100654.87
2018-04-08T02:50:52.996Z,100653.27
2018-04-08T02:53:19.035Z,100648.51
2018-04-08T02:55:45.195Z,100651.27
2018-04-08T02:58:11.222Z,100658.36
2018-04-08T03:00:37.245Z,100655.44
2018-04-08T03:03:03.304Z,100648.23
2018-04-08T03:05:29.380Z,100645.21
2018-04-08T03:07:55.448Z,100639.22
2018-04-08T03:10:21.515Z,100641.80
2018-04-08T03:12:47.731Z,100645.80
2018-04-08T03:15:13.886Z,100641.84
2018-04-08T03:17:39.976Z,100647.52
2018-04-08T03:20:06.002Z,100646.16
2018-04-08T03:22:32.153Z,100651.88
2018-04-08T03:24:58.813Z,100638.00
2018-04-08T03:27:24.847Z,100640.07
2018-04-08T03:29:50.844Z,100631.49
2018-04-08T03:32:16.873Z,100630.48
2018-04-08T03:34:42.978Z,100634.13
2018-04-08T03:37:09.259Z,100634.02
2018-04-08T03:39:35.246Z,100638.50
2018-04-08T03:42:01.408Z,100639.08
2018-04-08T03:44:27.589Z,100641.33
2018-04-08T03:46:53.721Z,100637.14
2018-04-08T03:49:19.925Z,100641.33
2018-04-08T03:51:46.056Z,100639.00
2018-04-08T03:54:12.311Z,100633.66
2018-04-08T03:56:38.514Z,100633.58
2018-04-08T03:59:04.735Z,100635.83
2018-04-08T04:01:31.128Z,100640.81
2018-04-08T04:03:57.131Z,100633.22
2018-04-08T04:06:23.207Z,100626.80
2018-04-08T04:08:49.214Z,100623.03
2018-04-08T04:11:15.902Z,100616.34
2018-04-08T04:13:42.531Z,100611.01
2018-04-08T04:16:08.629Z,100608.81
2018-04-08T04:18:46.981Z,100605.12
2018-04-08T04:21:25.369Z,100603.69
2018-04-08T04:24:03.790Z,100607.88
2018-04-08T04:26:29.956Z,100609.20
2018-04-08T04:28:56.031Z,100615.56
2018-04-08T04:31:22.121Z,100612.68
2018-04-08T04:33:48.141Z,100612.44
2018-04-08T04:36:14.959Z,100618.97
2018-04-08T04:38:40.969Z,100602.97
2018-04-08T04:41:06.966Z,100605.00
2018-04-08T04:43:32.990Z,100603.92
2018-04-08T04:45:59.026Z,100603.94
2018-04-08T04:48:25.045Z,100609.77
2018-04-08T04:50:51.046Z,100605.70
2018-04-08T04:53:17.116Z,100611.86
2018-04-08T04:55:43.130Z,100610.05
2018-04-08T04:58:09.159Z,100611.74
2018-04-08T05:00:35.223Z,100611.99
2018-04-08T05:03:01.297Z,100612.34
2018-04-08T05:05:27.339Z,100610.45
2018-04-08T05:07:53.359Z,100606.17
2018-04-08T05:10:19.428Z,100599.66
2018-04-08T05:12:45.458Z,100605.59
2018-04-08T05:15:11.671Z,100607.36
2018-04-08T05:17:37.848Z,100602.94
2018-04-08T05:20:03.890Z,100607.53
2018-04-08T05:22:29.925Z,100606.16
2018-04-08T05:24:56.375Z,100600.31
2018-04-08T05:27:23.014Z,100602.66
2018-04-08T05:29:49.329Z,100607.50
2018-04-08T05:32:15.350Z,100609.67
2018-04-08T05:34:41.361Z,100606.80
2018-04-08T05:37:07.416Z,100609.05
2018-04-08T05:39:33.502Z,100602.77
2018-04-08T05:41:59.515Z,100606.94
2018-04-08T05:44:25.535Z,100610.87
2018-04-08T05:46:52.019Z,100609.82
2018-04-08T05:49:18.670Z,100612.48
2018-04-08T05:51:44.734Z,100613.91
2018-04-08T05:54:10.740Z,100620.09
2018-04-08T05:56:36.739Z,100613.37
2018-04-08T05:59:02.789Z,100613.83
2018-04-08T06:01:28.850Z,100619.58
2018-04-08T06:03:54.913Z,100622.14
2018-04-08T06:06:20.938Z,100620.31
2018-04-08T06:08:46.969Z,100617.16
2018-04-08T06:11:12.990Z,100619.69
2018-04-08T06:13:39.015Z,100618.97
2018-04-08T06:16:05.008Z,100617.83
2018-04-08T06:18:31.079Z,100613.23
2018-04-08T06:20:57.740Z,100620.80
2018-04-08T06:23:23.980Z,100620.46
2018-04-08T06:25:50.165Z,100624.89
2018-04-08T06:28:16.198Z,100628.82
2018-04-08T06:30:42.536Z,100632.96
2018-04-08T06:33:08.582Z,100631.09
2018-04-08T06:35:34.661Z,100632.53
2018-04-08T06:38:00.752Z,100634.26
2018-04-08T06:40:26.797Z,100630.63
2018-04-08T06:42:52.918Z,100635.81
2018-04-08T06:45:18.998Z,100634.94
2018-04-08T06:47:45.168Z,100637.94
2018-04-08T06:50:11.245Z,100641.05
2018-04-08T06:52:37.302Z,100645.83
2018-04-08T06:55:03.479Z,100648.38
2018-04-08T06:57:29.564Z,100651.81
2018-04-08T06:59:55.667Z,100652.98
2018-04-08T07:02:21.740Z,100651.23
2018-04-08T07:04:47.794Z,100655.03
2018-04-08T07:07:13.887Z,100654.88
2018-04-08T07:09:40.149Z,100652.13
2018-04-08T07:12:06.726Z,100646.09
2018-04-08T07:14:32.786Z,100645.05
2018-04-08T07:16:58.831Z,100645.69
2018-04-08T07:19:24.866Z,100648.15
2018-04-08T07:21:50.950Z,100647.30
2018-04-08T07:24:16.981Z,100650.52
2018-04-08T07:26:43.034Z,100654.86
2018-04-08T07:29:09.125Z,100646.78
2018-04-08T07:31:35.174Z,100645.91
2018-04-08T07:34:01.212Z,100650.28
2018-04-08T07:36:27.280Z,100648.24
2018-04-08T07:38:53.414Z,100641.56
2018-04-08T07:41:19.732Z,100644.30
2018-04-08T07:43:45.933Z,100653.03
2018-04-08T07:46:12.112Z,100658.15
2018-04-08T07:48:38.133Z,100661.38
2018-04-08T07:51:04.228Z,100656.09
2018-04-08T07:53:31.245Z,100661.39
2018-04-08T07:55:57.263Z,100660.70
2018-04-08T07:58:23.311Z,100664.13
2018-04-08T08:00:49.365Z,100670.73
2018-04-08T08:03:15.676Z,100671.81
2018-04-08T08:05:42.265Z,100682.03
2018-04-08T08:08:08.291Z,100673.59
2018-04-08T08:10:34.369Z,100678.36
2018-04-08T08:13:00.422Z,100675.91
2018-04-08T08:15:26.525Z,100679.08
2018-04-08T08:17:52.535Z,100678.47
2018-04-08T08:20:18.856Z,100680.31
2018-04-08T08:22:45.014Z,100681.15
2018-04-08T08:25:11.069Z,100678.47
2018-04-08T08:27:37.142Z,100674.70
2018-04-08T08:30:03.239Z,100674.22
2018-04-08T08:32:29.290Z,100680.74
2018-04-08T08:34:55.311Z,100684.23
2018-04-08T08:37:21.358Z,100684.31
2018-04-08T08:39:47.378Z,100689.93
2018-04-08T08:42:13.530Z,100701.31
2018-04-08T08:44:39.595Z,100701.30
2018-04-08T08:47:05.734Z,100711.44
2018-04-08T08:49:32.033Z,100704.05
2018-04-08T08:51:58.771Z,100700.39
2018-04-08T08:54:24.811Z,100697.19
2018-04-08T08:56:50.872Z,100697.66
2018-04-08T08:59:16.950Z,100683.23
2018-04-08T09:01:44.641Z,100684.28
2018-04-08T09:04:10.752Z,100685.70
2018-04-08T09:06:36.902Z,100681.02
2018-04-08T09:09:02.977Z,100683.14
2018-04-08T09:11:29.058Z,100679.28
2018-04-08T09:13:55.100Z,100673.02
2018-04-08T09:16:21.162Z,100665.72
2018-04-08T09:18:53.147Z,100652.42
2018-04-08T09:21:22.213Z,100628.53
2018-04-08T09:23:49.298Z,100612.59
2018-04-08T09:26:15.400Z,100602.84
2018-04-08T09:28:41.426Z,100585.19
2018-04-08T09:31:07.698Z,100588.92
2018-04-08T09:33:33.923Z,100597.14
2018-04-08T09:35:59.938Z,100591.41
2018-04-08T09:38:26.052Z,100599.49
2018-04-08T09:40:52.182Z,100594.34
2018-04-08T09:43:18.323Z,100591.45
2018-04-08T09:45:44.343Z,100579.47
2018-04-08T09:48:10.371Z,100570.58
2018-04-08T09:50:36.514Z,100558.63
2018-04-08T09:53:03.110Z,100556.14
2018-04-08T09:55:29.233Z,100561.63
2018-04-08T09:58:01.227Z,100570.27
2018-04-08T10:00:33.338Z,100565.33
2018-04-08T10:03:05.370Z,100570.72
2018-04-08T10:05:31.510Z,100582.42
2018-04-08T10:07:57.599Z,100575.73
2018-04-08T10:10:23.638Z,100574.68
2018-04-08T10:12:49.725Z,100574.97
2018-04-08T10:15:16.699Z,100571.84
2018-04-08T10:17:42.822Z,100569.33
2018-04-08T10:20:08.950Z,100567.67
2018-04-08T10:22:35.056Z,100557.94
2018-04-08T10:25:01.154Z,100562.27
2018-04-08T10:27:27.167Z,100550.55
2018-04-08T10:29:53.238Z,100556.44
2018-04-08T10:32:19.306Z,100562.30
2018-04-08T10:34:45.395Z,100560.96
2018-04-08T10:37:11.505Z,100558.22
2018-04-08T10:39:37.562Z,100557.67
2018-04-08T10:42:03.571Z,100561.78
2018-04-08T10:44:29.668Z,100561.97
2018-04-08T10:46:55.707Z,100560.92
2018-04-08T10:49:21.810Z,100566.75
2018-04-08T10:51:47.952Z,100566.73
2018-04-08T10:54:14.865Z,100566.22
2018-04-08T10:56:40.938Z,100565.54
2018-04-08T10:59:06.961Z,100556.95
2018-04-08T11:01:33.198Z,100555.95
2018-04-08T11:03:59.235Z,100552.19
2018-04-08T11:06:25.257Z,100558.38
2018-04-08T11:08:51.346Z,100558.58
2018-04-08T11:11:17.374Z,100565.53
2018-04-08T11:13:43.456Z,100573.66
2018-04-08T11:16:10.069Z,100571.41
2018-04-08T11:18:36.243Z,100563.03
2018-04-08T11:21:02.346Z,100567.33
2018-04-08T11:23:28.391Z,100567.42
2018-04-08T11:25:54.488Z,100564.42
2018-04-08T11:28:20.563Z,100566.86
2018-04-08T11:30:46.610Z,100579.56
2018-04-08T11:33:12.694Z,100579.73
2018-04-08T11:35:38.727Z,100582.91
2018-04-08T11:38:04.927Z,100582.16
2018-04-08T11:40:30.935Z,100570.55
2018-04-08T11:42:57.114Z,100569.13
2018-04-08T11:45:23.214Z,100565.92
2018-04-08T11:47:49.246Z,100559.65
2018-04-08T11:50:15.378Z,100552.97
2018-04-08T11:52:41.418Z,100547.80
2018-04-08T11:55:07.458Z,100542.94
2018-04-08T11:57:33.558Z,100538.61
2018-04-08T11:59:59.587Z,100529.94
2018-04-08T12:02:25.673Z,100523.41
2018-04-08T12:04:51.680Z,100518.11
2018-04-08T12:07:17.730Z,100511.81
2018-04-08T12:09:44.344Z,100515.78
2018-04-08T12:12:10.386Z,100509.61
2018-04-08T12:14:36.488Z,100509.56
2018-04-08T12:17:02.598Z,100523.91
2018-04-08T12:19:28.655Z,100530.55
2018-04-08T12:21:54.721Z,100539.94
2018-04-08T12:24:20.800Z,100540.59
2018-04-08T12:26:48.657Z,100561.98
2018-04-08T12:29:14.711Z,100565.53
2018-04-08T12:31:40.759Z,100569.66
2018-04-08T12:34:06.868Z,100568.76
2018-04-08T12:36:32.862Z,100561.95
2018-04-08T12:38:58.909Z,100566.18
2018-04-08T12:41:24.954Z,100564.84
2018-04-08T12:43:50.985Z,100565.98
2018-04-08T12:46:17.072Z,100550.70
2018-04-08T12:48:43.160Z,100540.89
2018-04-08T12:51:09.199Z,100540.50
2018-04-08T12:53:35.306Z,100545.91
2018-04-08T12:56:01.374Z,100550.52
2018-04-08T12:58:27.492Z,100548.48
2018-04-08T13:00:53.518Z,100548.34
2018-04-08T13:03:19.596Z,100559.37
2018-04-08T13:05:45.667Z,100558.75
2018-04-08T13:08:11.855Z,100563.94
2018-04-08T13:10:37.873Z,100564.00
2018-04-08T13:13:04.101Z,100559.65
2018-04-08T13:15:30.194Z,100557.62
2018-04-08T13:17:57.238Z,100556.44
2018-04-08T13:20:23.292Z,100556.08
2018-04-08T13:22:49.345Z,100554.69
2018-04-08T13:25:15.410Z,100547.62
2018-04-08T13:27:41.429Z,100549.95
2018-04-08T13:30:07.478Z,100546.88
2018-04-08T13:32:33.677Z,100544.14
2018-04-08T13:34:59.696Z,100542.00
2018-04-08T13:37:25.735Z,100540.45
2018-04-08T13:39:51.774Z,100542.52
2018-04-08T13:42:17.944Z,100534.09
2018-04-08T13:44:44.192Z,100531.95
2018-04-08T13:47:10.234Z,100524.71
2018-04-08T13:49:36.358Z,100529.06
2018-04-08T13:52:02.416Z,100527.38
2018-04-08T13:54:28.542Z,100521.87
2018-04-08T13:56:54.564Z,100520.62
2018-04-08T13:59:20.659Z,100520.34
2018-04-08T14:01:46.814Z,100520.33
2018-04-08T14:04:12.827Z,100528.87
2018-04-08T14:06:38.860Z,100524.56
2018-04-08T14:09:05.939Z,100523.55
2018-04-08T14:11:31.984Z,100526.63
2018-04-08T14:13:58.094Z,100529.11
2018-04-08T14:16:24.256Z,100524.10
2018-04-08T14:18:50.312Z,100531.53
2018-04-08T14:21:16.397Z,100533.75
2018-04-08T14:23:42.517Z,100535.97
2018-04-08T14:26:08.671Z,100532.77
2018-04-08T14:28:34.753Z,100533.98
2018-04-08T14:31:00.803Z,100518.84
2018-04-08T14:33:26.886Z,100516.76
2018-04-08T14:35:53.021Z,100509.14
2018-04-08T14:38:19.092Z,100507.25
2018-04-08T14:40:45.148Z,100513.83
2018-04-08T14:43:11.209Z,100520.76
2018-04-08T14:45:37.334Z,100517.27
2018-04-08T14:48:03.386Z,100511.95
2018-04-08T14:50:29.551Z,100519.29
2018-04-08T14:52:55.613Z,100518.37
2018-04-08T14:55:21.674Z,100517.69
2018-04-08T14:57:47.827Z,100507.95
2018-04-08T15:00:13.945Z,100506.03
2018-04-08T15:02:40.093Z,100514.87
2018-04-08T15:05:06.310Z,100513.59
2018-04-08T15:07:32.780Z,100516.71
2018-04-08T15:09:58.821Z,100515.31
2018-04-08T15:12:24.912Z,100511.34
2018-04-08T15:14:51.013Z,100511.30
2018-04-08T15:17:17.110Z,100519.85
2018-04-08T15:19:43.185Z,100521.05
2018-04-08T15:22:09.281Z,100509.97
2018-04-08T15:24:35.387Z,100506.60
2018-04-08T15:27:01.451Z,100512.72
2018-04-08T15:29:27.538Z,100502.58
2018-04-08T15:31:53.661Z,100507.38
2018-04-08T15:34:19.839Z,100510.63
2018-04-08T15:36:45.957Z,100506.05
2018-04-08T15:39:11.996Z,100510.53
2018-04-08T15:41:38.078Z,100517.30
2018-04-08T15:44:04.398Z,100514.50
2018-04-08T15:46:30.537Z,100515.19
2018-04-08T15:48:56.673Z,100518.72
2018-04-08T15:51:22.836Z,100529.36
2018-04-08T15:53:48.863Z,100531.77
2018-04-08T15:56:14.939Z,100526.16
2018-04-08T15:58:40.982Z,100528.25
2018-04-08T16:01:07.092Z,100527.52
2018-04-08T16:03:33.139Z,100532.64
2018-04-08T16:05:59.160Z,100528.50
2018-04-08T16:08:25.256Z,100531.22
2018-04-08T16:10:51.343Z,100527.34
2018-04-08T16:13:17.404Z,100536.82
2018-04-08T16:15:43.457Z,100532.70
2018-04-08T16:18:09.553Z,100529.89
2018-04-08T16:20:35.650Z,100528.36
2018-04-08T16:23:01.704Z,100528.70
2018-04-08T16:25:27.708Z,100527.16
2018-04-08T16:27:53.765Z,100527.91
2018-04-08T16:30:19.834Z,100528.20
2018-04-08T16:32:45.908Z,100525.87
2018-04-08T16:35:12.009Z,100528.41
2018-04-08T16:37:38.010Z,100524.31
2018-04-08T16:40:04.198Z,100528.31
2018-04-08T16:42:30.805Z,100524.20
2018-04-08T16:44:56.822Z,100521.66
2018-04-08T16:47:22.856Z,100523.70
2018-04-08T16:49:48.871Z,100518.05
2018-04-08T16:52:14.893Z,100525.97
2018-04-08T16:54:41.002Z,100527.09
2018-04-08T16:57:07.082Z,100521.14
2018-04-08T16:59:33.139Z,100527.69
2018-04-08T17:01:59.189Z,100534.88
2018-04-08T17:04:25.237Z,100526.09
2018-04-08T17:06:51.328Z,100532.66
2018-04-08T17:09:17.375Z,100536.32
2018-04-08T17:11:43.493Z,100535.00
2018-04-08T17:14:09.569Z,100542.33
2018-04-08T17:16:35.640Z,100539.14
2018-04-08T17:19:01.684Z,100538.87
2018-04-08T17:21:27.871Z,100533.88
2018-04-08T17:23:53.954Z,100538.73
2018-04-08T17:26:20.037Z,100532.61
2018-04-08T17:28:46.179Z,100527.23
2018-04-08T17:31:12.286Z,100525.57
2018-04-08T17:33:38.779Z,100532.53
2018-04-08T17:36:04.999Z,100534.32
2018-04-08T17:38:31.050Z,100538.56
2018-04-08T17:40:57.106Z,100539.23
2018-04-08T17:43:23.224Z,100539.75
2018-04-08T17:45:49.241Z,100549.69
2018-04-08T17:48:15.286Z,100546.13
2018-04-08T17:50:41.329Z,100550.56
2018-04-08T17:53:07.455Z,100557.14
2018-04-08T17:55:33.518Z,100550.05
2018-04-08T17:57:59.585Z,100556.05
2018-04-08T18:00:25.686Z,100564.70
2018-04-08T18:02:51.744Z,100560.09
2018-04-08T18:05:17.772Z,100560.70
2018-04-08T18:07:43.849Z,100554.54
2018-04-08T18:10:10.114Z,100556.97
2018-04-08T18:12:36.338Z,100557.23
2018-04-08T18:15:02.469Z,100564.20
2018-04-08T18:17:28.537Z,100565.56
2018-04-08T18:19:54.630Z,100566.02
2018-04-08T18:22:20.775Z,100572.69
2018-04-08T18:24:46.898Z,100570.63
2018-04-08T18:27:12.987Z,100581.23
2018-04-08T18:29:39.259Z,100581.20
2018-04-08T18:32:05.360Z,100585.06
2018-04-08T18:34:31.407Z,100586.85
2018-04-08T18:36:57.513Z,100583.53
2018-04-08T18:39:23.594Z,100586.16
2018-04-08T18:41:49.678Z,100588.47
2018-04-08T18:44:15.745Z,100590.85
2018-04-08T18:46:41.787Z,100593.41
2018-04-08T18:49:07.866Z,100593.69
2018-04-08T18:51:34.510Z,100596.47
2018-04-08T18:54:01.187Z,100598.23
2018-04-08T18:56:27.279Z,100594.52
2018-04-08T18:58:53.358Z,100605.53
2018-04-08T19:01:19.519Z,100604.09
2018-04-08T19:03:45.708Z,100609.50
2018-04-08T19:06:11.781Z,100604.69
2018-04-08T19:08:37.824Z,100619.27
2018-04-08T19:11:03.909Z,100616.20
2018-04-08T19:13:30.046Z,100615.43
2018-04-08T19:15:56.274Z,100618.98
2018-04-08T19:18:22.522Z,100621.38
2018-04-08T19:20:48.619Z,100621.33
2018-04-08T19:23:14.747Z,100620.62
2018-04-08T19:25:40.826Z,100622.08
2018-04-08T19:28:07.001Z,100626.14
2018-04-08T19:30:33.085Z,100624.44
2018-04-08T19:32:59.103Z,100631.55
2018-04-08T19:35:25.178Z,100637.63
2018-04-08T19:37:51.280Z,100638.14
2018-04-08T19:40:17.375Z,100641.54
2018-04-08T19:42:43.414Z,100646.48
2018-04-08T19:45:09.483Z,100638.80
2018-04-08T19:47:35.522Z,100642.43
2018-04-08T19:50:01.577Z,100646.96
2018-04-08T19:52:27.636Z,100646.48
2018-04-08T19:54:53.674Z,100646.55
2018-04-08T19:57:19.718Z,100644.61
2018-04-08T19:59:45.769Z,100645.88
2018-04-08T20:02:11.862Z,100643.02
2018-04-08T20:04:38.079Z,100645.23
2018-04-08T20:07:04.342Z,100643.35
2018-04-08T20:09:30.490Z,100646.48
2018-04-08T20:11:56.532Z,100643.05
2018-04-08T20:14:22.706Z,100640.04
2018-04-08T20:16:49.229Z,100641.20
2018-04-08T20:19:15.258Z,100628.68
2018-04-08T20:21:41.291Z,100644.66
2018-04-08T20:24:07.378Z,100633.30
2018-04-08T20:26:33.451Z,100639.11
2018-04-08T20:28:59.473Z,100636.16
2018-04-08T20:31:25.520Z,100635.86
2018-04-08T20:33:51.601Z,100639.25
2018-04-08T20:36:17.621Z,100636.74
2018-04-08T20:38:43.643Z,100639.42
2018-04-08T20:41:09.674Z,100639.59
2018-04-08T20:43:35.773Z,100637.00
2018-04-08T20:46:01.880Z,100639.58
2018-04-08T20:48:28.381Z,100638.62
2018-04-08T20:50:54.382Z,100645.86
2018-04-08T20:53:20.410Z,100645.71
2018-04-08T20:55:46.553Z,100649.08
2018-04-08T20:58:12.665Z,100646.87
2018-04-08T21:00:38.708Z,100647.05
2018-04-08T21:03:04.788Z,100649.47
2018-04-08T21:05:30.842Z,100648.13
2018-04-08T21:07:56.907Z,100645.53
2018-04-08T21:10:22.929Z,100645.36
2018-04-08T21:12:48.989Z,100637.40
2018-04-08T21:15:15.046Z,100629.70
2018-04-08T21:17:41.086Z,100635.28
2018-04-08T21:20:07.236Z,100641.07
2018-04-08T21:22:33.278Z,100642.23
2018-04-08T21:24:59.344Z,100640.87
2018-04-08T21:27:25.401Z,100635.44
2018-04-08T21:29:51.467Z,100641.11
2018-04-08T21:32:17.589Z,100636.75
2018-04-08T21:34:43.682Z,100631.41
2018-04-08T21:37:09.705Z,100634.72
2018-04-08T21:39:35.795Z,100638.34
2018-04-08T21:42:02.085Z,100628.34
2018-04-08T21:44:28.213Z,100632.09
2018-04-08T21:46:55.195Z,100630.00
2018-04-08T21:49:21.236Z,100631.20
2018-04-08T21:51:47.307Z,100634.50
2018-04-08T21:54:13.408Z,100637.11
2018-04-08T21:56:39.452Z,100643.44
2018-04-08T21:59:05.462Z,100641.02
2018-04-08T22:01:31.487Z,100637.11
2018-04-08T22:03:57.602Z,100632.93
2018-04-08T22:06:23.643Z,100641.02
2018-04-08T22:08:49.633Z,100637.37
2018-04-08T22:11:15.641Z,100633.02
2018-04-08T22:13:41.647Z,100628.91
2018-04-08T22:16:07.651Z,100635.44
2018-04-08T22:18:33.674Z,100637.55
2018-04-08T22:20:59.745Z,100638.05
2018-04-08T22:23:25.759Z,100647.19
2018-04-08T22:25:51.800Z,100645.28
2018-04-08T22:28:17.911Z,100649.05
2018-04-08T22:30:43.978Z,100650.75
2018-04-08T22:33:10.029Z,100646.57
2018-04-08T22:35:36.087Z,100656.05
2018-04-08T22:38:02.126Z,100654.00
2018-04-08T22:40:28.210Z,100657.61
2018-04-08T22:42:54.225Z,100664.31
2018-04-08T22:45:20.224Z,100654.36
2018-04-08T22:47:46.225Z,100657.26
2018-04-08T22:50:12.334Z,100652.82
2018-04-08T22:52:38.362Z,100658.60
2018-04-08T22:55:04.401Z,100662.38
2018-04-08T22:57:30.506Z,100668.98
2018-04-08T22:59:56.625Z,100671.16
2018-04-08T23:02:22.595Z,100676.27
2018-04-08T23:04:48.653Z,100677.09
2018-04-08T23:07:15.700Z,100673.91
2018-04-08T23:09:41.775Z,100663.97
2018-04-08T23:12:07.787Z,100664.42
2018-04-08T23:14:33.801Z,100670.95
2018-04-08T23:16:59.851Z,100677.56
2018-04-08T23:19:26.043Z,100675.73
2018-04-08T23:21:52.205Z,100681.58
2018-04-08T23:24:18.207Z,100681.50
2018-04-08T23:26:44.195Z,100673.72
2018-04-08T23:29:10.263Z,100672.30
2018-04-08T23:31:36.422Z,100669.95
2018-04-08T23:34:02.496Z,100674.80
2018-04-08T23:36:28.521Z,100677.84
2018-04-08T23:38:54.629Z,100675.75
2018-04-08T23:41:20.662Z,100678.59
2018-04-08T23:43:46.743Z,100672.83
2018-04-08T23:46:12.764Z,100671.23
2018-04-08T23:48:45.563Z,100671.23
2018-04-08T23:51:11.586Z,100675.66
2018-04-08T23:53:37.612Z,100675.58
2018-04-08T23:56:03.644Z,100672.66
2018-04-08T23:58:29.753Z,100676.59
